Time;durP1;ratioP1;P1;durP2;ratioP2;P2;SDS_P1;SDS_P2;PMS_P1;PMS_P2;Temp;Humidity;BMP_temperature;BMP_pressure;BME280_temperature;BME280_humidity;BME280_pressure;Samples;Min_cycle;Max_cycle;Signal;HPM_P1;HPM_P2
2023/04/25 00:01:04;;;;;;;3.72;1.60;;;;;;;13.71;50.27;100219.72;4965941;28;99429;-70
2023/04/25 00:03:31;;;;;;;3.20;1.77;;;;;;;13.47;50.91;100213.09;4962483;28;97441;-70
2023/04/25 00:05:58;;;;;;;1.85;1.42;;;;;;;13.46;50.55;100230.81;4957690;28;96980;-69
2023/04/25 00:08:25;;;;;;;3.15;1.92;;;;;;;13.43;50.44;100227.50;4964507;28;99263;-71
2023/04/25 00:10:52;;;;;;;6.15;1.95;;;;;;;13.64;50.01;100220.16;4972518;28;99261;-71
2023/04/25 00:13:19;;;;;;;5.68;1.67;;;;;;;13.59;49.72;100219.56;4967319;28;101000;-70
2023/04/25 00:15:47;;;;;;;3.17;1.58;;;;;;;13.66;49.49;100219.09;4966648;28;97753;-69
2023/04/25 00:18:14;;;;;;;4.20;1.50;;;;;;;13.59;49.49;100215.06;4965900;28;102020;-70
2023/04/25 00:20:46;;;;;;;2.55;1.50;;;;;;;13.52;49.42;100221.69;4969616;28;99438;-70
2023/04/25 00:23:12;;;;;;;4.53;1.60;;;;;;;13.77;48.89;100214.06;4973079;28;96888;-69
2023/04/25 00:25:39;;;;;;;5.90;1.67;;;;;;;13.95;48.43;100217.44;4965424;28;98578;-70
2023/04/25 00:28:05;;;;;;;4.18;1.25;;;;;;;13.74;48.65;100219.53;4963803;28;99075;-69
2023/04/25 00:30:31;;;;;;;7.35;1.90;;;;;;;13.69;48.66;100220.72;4967601;28;98870;-71
2023/04/25 00:32:59;;;;;;;4.13;1.67;;;;;;;13.61;48.84;100218.50;4966264;28;96797;-71
2023/04/25 00:35:25;;;;;;;4.97;1.83;;;;;;;13.70;48.85;100215.34;4964536;28;97948;-70
2023/04/25 00:37:52;;;;;;;4.03;1.52;;;;;;;13.61;48.85;100210.53;4969463;28;99359;-71
2023/04/25 00:40:18;;;;;;;10.10;1.45;;;;;;;13.59;49.20;100212.41;4964337;28;99092;-71
2023/04/25 00:42:45;;;;;;;5.20;1.80;;;;;;;13.61;48.93;100209.69;4960895;28;98951;-70
2023/04/25 00:45:15;;;;;;;6.22;1.75;;;;;;;13.56;49.00;100212.59;4964059;28;96949;-70
2023/04/25 00:47:41;;;;;;;7.15;1.80;;;;;;;13.68;48.77;100208.41;4959003;28;100887;-71
2023/04/25 00:50:10;;;;;;;4.57;1.58;;;;;;;13.78;48.55;100207.81;4970217;28;98994;-71
2023/04/25 00:52:38;;;;;;;5.22;1.73;;;;;;;13.52;49.19;100211.06;4965025;28;96843;-70
2023/04/25 00:55:06;;;;;;;6.65;1.98;;;;;;;13.78;48.70;100207.81;4964192;28;98146;-69
2023/04/25 00:57:32;;;;;;;9.13;1.90;;;;;;;13.81;48.62;100214.72;4966974;28;99013;-70
2023/04/25 01:00:00;;;;;;;3.72;1.75;;;;;;;14.01;48.31;100213.56;4966932;28;98869;-69
2023/04/25 01:02:27;;;;;;;4.88;1.77;;;;;;;14.12;48.05;100206.69;4967348;28;96827;-69
2023/04/25 01:04:54;;;;;;;7.32;2.30;;;;;;;13.95;48.27;100207.69;4963030;28;97207;-70
2023/04/25 01:07:21;;;;;;;5.72;2.15;;;;;;;13.44;49.47;100208.00;4964369;28;98951;-69
2023/04/25 01:09:48;;;;;;;7.13;2.10;;;;;;;13.53;49.23;100196.84;4962256;28;99075;-70
2023/04/25 01:12:15;;;;;;;9.43;2.42;;;;;;;13.52;49.28;100198.63;4966210;28;98399;-71
2023/04/25 01:14:41;;;;;;;5.47;2.03;;;;;;;13.19;50.17;100202.31;4966824;28;97198;-71
2023/04/25 01:17:09;;;;;;;5.57;2.10;;;;;;;13.31;49.75;100199.00;4967875;28;99125;-70
2023/04/25 01:19:35;;;;;;;6.25;2.17;;;;;;;13.46;49.51;100193.66;4966355;28;100862;-70
2023/04/25 01:22:04;;;;;;;8.63;2.58;;;;;;;13.57;49.05;100193.09;4963560;28;97118;-69
2023/04/25 01:24:32;;;;;;;7.60;2.10;;;;;;;13.62;49.06;100188.38;4967955;28;97009;-70
2023/04/25 01:27:00;;;;;;;10.88;2.30;;;;;;;13.57;49.19;100195.75;4965931;28;98853;-69
2023/04/25 01:29:27;;;;;;;5.97;2.22;;;;;;;13.45;49.26;100191.13;4961041;28;98973;-70
2023/04/25 01:31:55;;;;;;;11.52;2.60;;;;;;;13.47;49.41;100191.88;4965376;28;96881;-70
2023/04/25 01:34:22;;;;;;;11.38;2.47;;;;;;;13.24;49.91;100192.31;4966384;28;97357;-71
2023/04/25 01:36:50;;;;;;;6.60;2.25;;;;;;;13.40;49.83;100191.34;4965688;28;99205;-71
2023/04/25 01:39:18;;;;;;;8.50;2.65;;;;;;;13.43;49.69;100190.34;4973277;28;101515;-70
2023/04/25 01:41:45;;;;;;;8.32;2.88;;;;;;;13.42;49.74;100196.59;4968883;28;96909;-70
2023/04/25 01:44:12;;;;;;;6.32;2.72;;;;;;;13.21;50.08;100195.97;4965535;28;97070;-70
2023/04/25 01:46:38;;;;;;;8.70;2.92;;;;;;;13.35;49.78;100184.59;4963768;28;101381;-69
2023/04/25 01:49:05;;;;;;;8.75;2.80;;;;;;;13.28;50.22;100186.75;4965103;28;97546;-69
2023/04/25 01:51:32;;;;;;;5.97;2.35;;;;;;;12.93;50.55;100199.22;4965880;28;96918;-70
2023/04/25 01:53:58;;;;;;;7.00;2.65;;;;;;;13.02;50.68;100189.94;4968978;28;97408;-70
2023/04/25 01:56:31;;;;;;;8.65;2.78;;;;;;;13.27;50.16;100200.09;4967084;28;97876;-70
2023/04/25 01:58:57;;;;;;;8.20;2.63;;;;;;;13.17;50.18;100197.09;4967601;28;99566;-70
2023/04/25 02:01:24;;;;;;;9.02;2.30;;;;;;;13.01;50.50;100193.53;4969723;28;98460;-71
2023/04/25 02:03:50;;;;;;;7.93;2.17;;;;;;;13.34;50.04;100196.16;4964643;28;98897;-69
2023/04/25 02:06:16;;;;;;;7.88;2.35;;;;;;;13.12;50.61;100191.16;4972804;28;99224;-69
2023/04/25 02:08:43;;;;;;;7.47;2.25;;;;;;;13.18;50.32;100190.84;4965267;28;97584;-70
2023/04/25 02:11:09;;;;;;;8.43;2.50;;;;;;;13.38;49.67;100193.28;4966397;28;98586;-71
2023/04/25 02:13:37;;;;;;;8.07;2.65;;;;;;;13.26;49.98;100193.09;4965524;28;96925;-71
2023/04/25 02:16:03;;;;;;;7.68;2.55;;;;;;;13.22;50.23;100194.19;4970357;28;99000;-71
2023/04/25 02:18:31;;;;;;;7.82;2.42;;;;;;;13.02;50.61;100189.94;4959143;28;99140;-70
2023/04/25 02:20:57;;;;;;;6.85;2.33;;;;;;;12.87;51.07;100188.09;4968820;28;96882;-70
2023/04/25 02:23:23;;;;;;;8.38;2.72;;;;;;;12.85;51.09;100198.81;4966740;28;96767;-71
2023/04/25 02:25:50;;;;;;;6.45;2.60;;;;;;;12.98;50.92;100199.00;4973419;28;99104;-70
2023/04/25 02:28:17;;;;;;;8.95;2.72;;;;;;;12.94;50.98;100198.28;4972907;28;98953;-71
2023/04/25 02:30:44;;;;;;;6.38;2.72;;;;;;;12.95;50.88;100197.34;4975369;28;97177;-71
2023/04/25 02:33:11;;;;;;;8.20;2.92;;;;;;;13.27;50.23;100195.63;4974748;28;96935;-72
2023/04/25 02:35:37;;;;;;;7.20;2.85;;;;;;;13.41;49.60;100203.69;4969007;28;99222;-71
2023/04/25 02:38:03;;;;;;;9.93;2.95;;;;;;;13.22;50.31;100191.53;4965522;28;99512;-72
2023/04/25 02:40:30;;;;;;;10.05;3.00;;;;;;;12.97;50.83;100192.84;4965634;28;97353;-72
2023/04/25 02:42:56;;;;;;;10.63;2.67;;;;;;;13.16;50.63;100195.38;4971807;28;97502;-70
2023/04/25 02:45:22;;;;;;;6.78;2.95;;;;;;;13.22;50.21;100189.72;4970389;28;97692;-70
2023/04/25 02:47:50;;;;;;;14.55;3.65;;;;;;;13.14;50.27;100189.28;4972992;28;98752;-70
2023/04/25 02:50:18;;;;;;;9.43;3.00;;;;;;;13.09;50.70;100191.31;4974791;28;96931;-69
2023/04/25 02:52:45;;;;;;;5.88;2.70;;;;;;;13.21;50.75;100197.78;4968205;28;98823;-70
2023/04/25 02:55:11;;;;;;;6.65;2.92;;;;;;;13.16;50.47;100190.94;4969057;28;99142;-69
2023/04/25 02:57:38;;;;;;;7.68;3.35;;;;;;;13.13;50.58;100184.91;4968960;28;99308;-70
2023/04/25 03:00:06;;;;;;;9.85;3.60;;;;;;;13.06;50.76;100192.31;4966205;28;97207;-70
2023/04/25 03:02:33;;;;;;;10.10;3.22;;;;;;;13.12;50.65;100191.16;4966570;28;96925;-70
2023/04/25 03:05:00;;;;;;;9.32;3.17;;;;;;;13.09;50.80;100192.16;4965574;28;99226;-70
2023/04/25 03:07:27;;;;;;;7.32;2.95;;;;;;;12.79;51.58;100188.53;4968894;28;99076;-71
2023/04/25 03:09:53;;;;;;;8.95;3.40;;;;;;;12.92;51.12;100184.28;4963825;28;99010;-71
2023/04/25 03:12:20;;;;;;;7.43;3.40;;;;;;;12.97;51.09;100190.19;4974623;28;97339;-70
2023/04/25 03:14:46;;;;;;;9.90;3.28;;;;;;;13.33;50.26;100184.69;4969225;28;98939;-70
2023/04/25 03:17:12;;;;;;;13.90;3.40;;;;;;;13.45;49.72;100188.47;4969075;28;98797;-70
2023/04/25 03:19:39;;;;;;;8.43;3.17;;;;;;;13.60;49.45;100184.94;4970486;28;97783;-70
2023/04/25 03:22:06;;;;;;;6.15;3.03;;;;;;;13.72;49.27;100192.19;4966011;28;97010;-70
2023/04/25 03:24:33;;;;;;;7.93;3.28;;;;;;;13.58;49.22;100194.81;4968781;28;98778;-71
2023/04/25 03:27:00;;;;;;;8.65;3.58;;;;;;;13.48;49.47;100205.06;4969418;28;97937;-70
2023/04/25 03:29:27;;;;;;;9.60;3.58;;;;;;;13.60;49.68;100195.56;4968221;28;97663;-71
2023/04/25 03:31:53;;;;;;;7.07;3.00;;;;;;;13.43;49.94;100191.19;4968898;28;97107;-71
2023/04/25 03:34:21;;;;;;;9.20;3.55;;;;;;;13.68;49.11;100195.97;4968183;28;98307;-70
2023/04/25 03:36:47;;;;;;;8.85;3.15;;;;;;;13.35;49.94;100197.88;4965326;28;99125;-71
2023/04/25 03:39:15;;;;;;;11.13;3.50;;;;;;;13.27;50.40;100200.94;4973153;28;97018;-71
2023/04/25 03:41:42;;;;;;;12.07;3.80;;;;;;;13.38;49.90;100193.28;4967437;28;96877;-71
2023/04/25 03:44:08;;;;;;;10.05;2.88;;;;;;;13.34;50.09;100202.31;4971800;28;99431;-70
2023/04/25 03:46:34;;;;;;;8.93;3.95;;;;;;;13.61;49.63;100201.72;4965395;28;99024;-71
2023/04/25 03:49:01;;;;;;;5.45;2.97;;;;;;;13.41;50.10;100202.84;4966150;28;96937;-71
2023/04/25 03:51:27;;;;;;;9.40;3.65;;;;;;;13.37;50.01;100201.31;4966547;28;98383;-70
2023/04/25 03:53:54;;;;;;;11.20;3.55;;;;;;;13.33;50.22;100205.91;4969940;28;99322;-71
2023/04/25 03:56:21;;;;;;;8.30;3.35;;;;;;;13.50;49.78;100207.66;4963414;28;98919;-71
2023/04/25 03:58:48;;;;;;;10.13;3.40;;;;;;;13.47;49.96;100207.78;4967009;28;96878;-70
2023/04/25 04:01:14;;;;;;;10.07;3.45;;;;;;;13.25;50.51;100202.00;4967283;28;97046;-71
2023/04/25 04:03:41;;;;;;;8.95;3.25;;;;;;;13.47;50.03;100207.78;4966672;28;99224;-70
2023/04/25 04:06:08;;;;;;;9.07;3.33;;;;;;;13.49;49.86;100209.44;4964282;28;102608;-72
2023/04/25 04:08:38;;;;;;;8.77;4.18;;;;;;;13.62;49.62;100214.91;4963214;28;97341;-71
2023/04/25 04:11:04;;;;;;;9.63;3.30;;;;;;;13.80;48.97;100216.53;4964365;28;99237;-71
2023/04/25 04:13:32;;;;;;;11.02;3.85;;;;;;;13.63;49.33;100213.13;4967161;28;99301;-70
2023/04/25 04:15:59;;;;;;;8.63;3.00;;;;;;;13.56;49.70;100220.56;4968579;28;98852;-71
2023/04/25 04:18:25;;;;;;;7.80;3.20;;;;;;;13.31;50.35;100225.53;4966531;28;96858;-71
2023/04/25 04:20:52;;;;;;;7.00;3.42;;;;;;;13.42;50.38;100221.34;4969798;28;96872;-71
2023/04/25 04:23:20;;;;;;;10.13;3.40;;;;;;;13.38;50.02;100225.13;4968046;28;99004;-72
2023/04/25 04:25:46;;;;;;;9.45;3.50;;;;;;;13.71;49.28;100222.38;4962706;28;98958;-71
2023/04/25 04:28:13;;;;;;;10.45;3.63;;;;;;;13.74;49.32;100222.19;4968243;28;97729;-71
2023/04/25 04:30:41;;;;;;;11.65;3.33;;;;;;;13.87;49.13;100225.84;4961398;28;97426;-70
2023/04/25 04:33:07;;;;;;;7.15;3.05;;;;;;;13.91;48.60;100230.03;4965920;28;99024;-72
2023/04/25 04:35:33;;;;;;;7.53;2.80;;;;;;;13.83;48.84;100229.63;4971138;28;99228;-71
2023/04/25 04:38:00;;;;;;;10.82;3.00;;;;;;;13.95;48.60;100234.25;4968473;28;97127;-71
2023/04/25 04:40:26;;;;;;;11.77;3.85;;;;;;;13.96;48.52;100228.00;4967382;28;97863;-71
2023/04/25 04:42:56;;;;;;;11.50;3.53;;;;;;;13.91;48.53;100235.34;4967933;28;99067;-72
2023/04/25 04:45:22;;;;;;;10.65;2.78;;;;;;;14.08;48.44;100238.84;4968719;28;98950;-70
2023/04/25 04:47:50;;;;;;;8.15;3.35;;;;;;;13.67;49.10;100246.50;4967239;28;98189;-71
2023/04/25 04:50:18;;;;;;;8.35;2.88;;;;;;;13.69;49.38;100242.84;4960841;28;98418;-71
2023/04/25 04:52:44;;;;;;;9.98;2.90;;;;;;;13.84;49.07;100239.31;4961820;28;98921;-71
2023/04/25 04:55:10;;;;;;;9.77;3.60;;;;;;;13.82;49.07;100237.69;4967036;28;99272;-70
2023/04/25 04:57:38;;;;;;;10.48;3.67;;;;;;;13.93;48.57;100243.22;4965119;28;96946;-71
2023/04/25 05:00:06;;;;;;;11.40;3.30;;;;;;;14.04;48.59;100239.97;4961758;28;98434;-71
2023/04/25 05:02:33;;;;;;;9.45;3.15;;;;;;;13.94;48.79;100240.50;4963489;28;99269;-71
2023/04/25 05:05:00;;;;;;;13.20;2.90;;;;;;;14.05;48.59;100244.31;4964142;28;98882;-71
2023/04/25 05:07:27;;;;;;;9.98;3.10;;;;;;;13.89;48.77;100250.53;4965244;28;99391;-71
2023/04/25 05:09:53;;;;;;;9.45;3.20;;;;;;;13.95;48.82;100249.31;4957827;28;97971;-71
2023/04/25 05:12:19;;;;;;;10.60;3.42;;;;;;;13.82;49.09;100251.81;4961835;28;98957;-71
2023/04/25 05:14:45;;;;;;;12.23;3.58;;;;;;;13.74;49.25;100253.19;4961296;28;99335;-70
2023/04/25 05:17:12;;;;;;;7.72;3.33;;;;;;;13.61;49.64;100245.06;4960787;28;100993;-71
2023/04/25 05:19:40;;;;;;;13.85;3.03;;;;;;;13.95;49.13;100250.19;4966032;28;97023;-71
2023/04/25 05:22:08;;;;;;;10.73;3.40;;;;;;;14.00;48.65;100255.22;4967832;28;99266;-71
2023/04/25 05:24:34;;;;;;;10.68;3.00;;;;;;;13.76;49.01;100257.47;4966034;28;99097;-70
2023/04/25 05:27:00;;;;;;;6.85;3.00;;;;;;;13.24;50.42;100256.00;4962774;28;96911;-70
2023/04/25 05:29:27;;;;;;;12.18;3.35;;;;;;;13.48;50.24;100251.97;4967588;28;98519;-70
2023/04/25 05:31:53;;;;;;;10.23;3.20;;;;;;;13.64;49.76;100258.16;4963146;28;99266;-70
2023/04/25 05:34:19;;;;;;;8.70;3.13;;;;;;;13.85;49.27;100256.94;4963012;28;100620;-72
2023/04/25 05:36:48;;;;;;;12.80;3.17;;;;;;;14.00;48.69;100259.69;4962138;28;98210;-70
2023/04/25 05:39:15;;;;;;;7.85;2.90;;;;;;;13.93;48.66;100257.38;4963933;28;96901;-70
2023/04/25 05:41:42;;;;;;;9.52;3.55;;;;;;;13.91;49.07;100255.75;4957883;28;99406;-71
2023/04/25 05:44:09;;;;;;;9.52;3.20;;;;;;;13.68;49.63;100262.34;4961867;28;99110;-71
2023/04/25 05:46:35;;;;;;;14.27;4.15;;;;;;;13.62;50.27;100268.00;4958617;28;98321;-73
2023/04/25 05:49:01;;;;;;;9.27;3.33;;;;;;;13.77;49.85;100264.50;4960911;28;97354;-72
2023/04/25 05:51:28;;;;;;;9.98;4.10;;;;;;;13.64;50.38;100268.78;4967718;28;99299;-72
2023/04/25 05:53:54;;;;;;;9.73;4.22;;;;;;;13.84;50.02;100273.00;4961105;28;99503;-73
2023/04/25 05:56:22;;;;;;;9.88;4.00;;;;;;;14.18;49.15;100275.41;4965924;28;96934;-73
2023/04/25 05:58:48;;;;;;;9.15;3.50;;;;;;;14.30;48.69;100269.41;4972167;28;96834;-72
2023/04/25 06:01:14;;;;;;;7.35;3.58;;;;;;;14.28;48.95;100273.09;4970077;28;99286;-73
2023/04/25 06:03:42;;;;;;;8.23;3.33;;;;;;;14.19;49.22;100279.78;4970176;28;101672;-73
2023/04/25 06:06:09;;;;;;;9.07;3.05;;;;;;;14.08;49.61;100281.34;4969354;28;97625;-72
2023/04/25 06:08:35;;;;;;;14.70;3.80;;;;;;;14.13;49.77;100279.28;4963683;28;97426;-74
2023/04/25 06:11:02;;;;;;;11.40;3.83;;;;;;;14.41;49.17;100283.91;4966590;28;98935;-73
2023/04/25 06:13:30;;;;;;;13.55;3.88;;;;;;;13.85;50.19;100287.94;4969107;28;100817;-73
2023/04/25 06:15:56;;;;;;;11.32;4.47;;;;;;;13.80;50.60;100295.31;4971357;28;98247;-72
2023/04/25 06:18:22;;;;;;;11.10;3.92;;;;;;;13.82;51.19;100290.78;4969207;28;97116;-72
2023/04/25 06:20:49;;;;;;;15.00;3.85;;;;;;;14.34;49.62;100291.34;4972025;28;99081;-72
2023/04/25 06:23:15;;;;;;;11.45;4.15;;;;;;;14.16;49.87;100287.09;4967652;28;100255;-72
2023/04/25 06:25:42;;;;;;;11.05;4.03;;;;;;;14.37;49.45;100291.19;4970001;28;97080;-74
2023/04/25 06:28:08;;;;;;;9.80;4.03;;;;;;;14.42;49.45;100288.28;4954441;28;97404;-72
2023/04/25 06:30:36;;;;;;;10.48;4.25;;;;;;;14.84;48.30;100295.50;4963901;28;99066;-72
2023/04/25 06:33:02;;;;;;;9.32;4.18;;;;;;;14.33;49.11;100295.78;4965046;28;98826;-72
2023/04/25 06:35:29;;;;;;;10.23;3.83;;;;;;;14.12;50.05;100298.81;4962818;28;98065;-73
2023/04/25 06:37:55;;;;;;;8.05;3.47;;;;;;;14.18;49.89;100290.50;4958540;28;97725;-74
2023/04/25 06:40:22;;;;;;;10.38;4.03;;;;;;;13.89;50.69;100293.03;4958589;28;98753;-72
2023/04/25 06:42:49;;;;;;;11.65;3.97;;;;;;;14.11;50.63;100291.81;4968104;28;99152;-72
2023/04/25 06:45:15;;;;;;;11.30;4.20;;;;;;;14.17;50.43;100299.44;4972148;28;96745;-72
2023/04/25 06:47:43;;;;;;;9.73;3.80;;;;;;;14.27;50.11;100300.59;4960532;28;97045;-72
2023/04/25 06:50:10;;;;;;;7.00;3.83;;;;;;;14.26;50.36;100296.22;4978718;28;99069;-73
2023/04/25 06:52:38;;;;;;;7.18;3.90;;;;;;;14.46;50.04;100301.28;4973004;28;99809;-73
2023/04/25 06:55:05;;;;;;;8.77;3.90;;;;;;;14.48;49.74;100295.88;4973046;28;97290;-72
2023/04/25 06:57:32;;;;;;;12.77;3.47;;;;;;;14.14;50.31;100303.13;4967141;28;99057;-72
2023/04/25 07:02:46;;;;;;;6.57;3.60;;;;;;;14.05;51.12;100303.63;4967945;28;98647;-71
2023/04/25 07:05:12;;;;;;;13.18;4.75;;;;;;;14.25;50.49;100299.81;4961327;28;98732;-71
2023/04/25 07:07:39;;;;;;;9.90;3.92;;;;;;;13.74;51.55;100308.94;4965253;28;98202;-70
2023/04/25 07:10:06;;;;;;;9.02;3.60;;;;;;;13.77;51.82;100316.75;4969576;28;102511;-71
2023/04/25 07:12:32;;;;;;;11.10;3.90;;;;;;;13.47;52.98;100314.81;4963853;28;99180;-72
2023/04/25 07:14:59;;;;;;;9.05;3.63;;;;;;;13.83;52.17;100319.06;4975471;28;96996;-72
2023/04/25 07:17:28;;;;;;;11.35;4.13;;;;;;;13.98;51.89;100322.69;4965865;28;98132;-72
2023/04/25 07:19:56;;;;;;;11.48;3.72;;;;;;;14.05;52.05;100324.03;4973740;28;98304;-71
2023/04/25 07:22:22;;;;;;;10.00;3.53;;;;;;;13.92;51.95;100330.03;4967170;28;98755;-70
2023/04/25 07:24:49;;;;;;;12.20;4.18;;;;;;;14.16;51.68;100337.56;4962526;28;98910;-70
2023/04/25 07:27:15;;;;;;;8.50;3.95;;;;;;;14.01;51.14;100333.13;4963431;28;96937;-70
2023/04/25 07:29:42;;;;;;;14.52;3.67;;;;;;;14.18;50.62;100341.84;4960373;28;98954;-71
2023/04/25 07:32:09;;;;;;;15.98;3.63;;;;;;;14.46;49.90;100346.47;4969598;28;99514;-71
2023/04/25 07:34:37;;;;;;;12.90;4.35;;;;;;;14.62;49.25;100343.78;4967397;28;96866;-70
2023/04/25 07:37:05;;;;;;;13.82;3.65;;;;;;;14.62;47.88;100336.69;4965321;28;97604;-70
2023/04/25 07:39:31;;;;;;;11.65;3.28;;;;;;;14.83;46.97;100347.00;4963603;28;99372;-71
2023/04/25 07:42:00;;;;;;;13.95;3.50;;;;;;;14.77;46.98;100348.19;4963539;28;98825;-70
2023/04/25 07:44:27;;;;;;;16.73;3.42;;;;;;;14.45;46.51;100347.41;4961787;28;97259;-71
2023/04/25 07:46:53;;;;;;;15.43;3.47;;;;;;;14.83;45.98;100350.53;4968332;28;96860;-70
2023/04/25 07:49:19;;;;;;;18.30;4.00;;;;;;;15.07;45.09;100346.38;4960654;28;99976;-72
2023/04/25 07:51:46;;;;;;;17.27;3.65;;;;;;;14.95;44.84;100354.25;4972623;28;99475;-71
2023/04/25 07:54:16;;;;;;;14.07;3.78;;;;;;;15.20;44.72;100354.47;4968733;28;97951;-71
2023/04/25 07:56:42;;;;;;;18.23;3.97;;;;;;;15.36;44.02;100355.25;4968301;28;97343;-71
2023/04/25 07:59:08;;;;;;;25.15;4.40;;;;;;;15.39;43.56;100363.06;4964092;28;99004;-72
2023/04/25 08:01:35;;;;;;;19.15;3.63;;;;;;;15.52;43.12;100364.03;4966322;28;101808;-72
2023/04/25 08:04:01;;;;;;;17.73;3.03;;;;;;;15.36;41.87;100363.22;4955519;28;98634;-70
2023/04/25 08:06:28;;;;;;;16.23;3.75;;;;;;;15.06;41.98;100373.06;4957157;28;97944;-72
2023/04/25 08:08:55;;;;;;;19.90;3.08;;;;;;;14.97;42.05;100365.63;4959093;28;99224;-72
2023/04/25 08:11:22;;;;;;;13.73;3.50;;;;;;;15.12;41.91;100375.38;4962207;28;98803;-72
2023/04/25 08:13:49;;;;;;;17.70;3.83;;;;;;;14.92;42.43;100375.69;4962857;28;99372;-73
2023/04/25 08:16:18;;;;;;;21.00;4.60;;;;;;;15.36;41.95;100381.03;4959401;28;98632;-73
2023/04/25 08:18:44;;;;;;;22.98;4.15;;;;;;;15.50;41.53;100376.56;4960524;28;101077;-73
2023/04/25 08:21:12;;;;;;;20.30;3.55;;;;;;;15.43;41.38;100385.88;4962680;28;101812;-73
2023/04/25 08:23:39;;;;;;;24.20;3.95;;;;;;;15.54;40.75;100383.47;4958838;28;98693;-72
2023/04/25 08:26:05;;;;;;;17.30;3.72;;;;;;;15.48;40.83;100394.47;4973547;28;97217;-72
2023/04/25 08:28:33;;;;;;;22.55;3.95;;;;;;;15.76;40.47;100382.09;4961160;28;99009;-73
2023/04/25 08:31:00;;;;;;;17.60;4.07;;;;;;;16.07;39.56;100387.22;4966095;28;99022;-72
2023/04/25 08:33:26;;;;;;;22.35;4.22;;;;;;;16.43;38.22;100399.13;4961721;28;96812;-73
2023/04/25 08:35:53;;;;;;;19.98;2.97;;;;;;;16.06;37.94;100403.31;4964810;28;97565;-73
2023/04/25 08:38:20;;;;;;;19.80;3.50;;;;;;;15.47;38.67;100403.38;4963013;28;99011;-72
2023/04/25 08:40:50;;;;;;;20.75;3.85;;;;;;;15.38;38.45;100409.25;4964596;28;102786;-73
2023/04/25 08:43:19;;;;;;;13.65;2.90;;;;;;;15.32;37.26;100404.31;4966512;28;97343;-72
2023/04/25 08:45:47;;;;;;;18.17;3.22;;;;;;;15.66;37.27;100418.25;4960847;28;96972;-73
2023/04/25 08:48:16;;;;;;;18.70;2.95;;;;;;;15.70;36.18;100409.13;4958412;28;98869;-73
2023/04/25 08:50:50;;;;;;;14.13;3.65;;;;;;;16.02;35.54;100409.78;4963814;28;98860;-73
2023/04/25 08:53:19;;;;;;;36.47;4.15;;;;;;;16.11;34.82;100420.72;4966451;28;97134;-74
2023/04/25 08:56:09;;;;;;;32.88;4.22;;;;;;;16.16;34.63;100426.59;4965057;28;96917;-73
2023/04/25 08:58:36;;;;;;;21.77;3.13;;;;;;;16.06;34.83;100421.97;4960074;28;97676;-71
2023/04/25 09:01:04;;;;;;;22.42;2.88;;;;;;;16.40;33.84;100424.19;4962610;28;98753;-72
2023/04/25 09:03:31;;;;;;;19.55;2.50;;;;;;;16.23;33.00;100419.06;4961711;28;98084;-72
2023/04/25 09:05:58;;;;;;;20.75;4.05;;;;;;;16.20;33.18;100433.47;4963313;28;96789;-69
2023/04/25 09:08:25;;;;;;;17.30;2.60;;;;;;;16.24;32.77;100423.47;4962522;28;99096;-71
2023/04/25 09:10:51;;;;;;;13.85;2.80;;;;;;;16.24;32.87;100428.78;4963511;28;99156;-70
2023/04/25 09:13:26;;;;;;;18.73;2.70;;;;;;;16.73;31.83;100432.72;4961763;28;96923;-71
2023/04/25 09:15:57;;;;;;;13.63;2.80;;;;;;;16.81;32.10;100436.66;4968585;28;96921;-70
2023/04/25 09:18:26;;;;;;;13.90;2.80;;;;;;;16.67;31.85;100435.75;4967996;28;98936;-71
2023/04/25 09:20:54;;;;;;;12.25;2.60;;;;;;;17.09;31.22;100441.88;4964098;28;98979;-71
2023/04/25 09:23:24;;;;;;;12.18;2.70;;;;;;;17.12;31.63;100447.03;4970824;28;97406;-70
2023/04/25 09:25:52;;;;;;;13.35;2.60;;;;;;;16.86;31.91;100439.91;4971078;28;97415;-70
2023/04/25 09:28:25;;;;;;;17.23;3.15;;;;;;;17.07;31.58;100449.97;4969960;28;101302;-70
2023/04/25 09:30:55;;;;;;;20.15;3.47;;;;;;;16.94;31.36;100448.22;4965055;28;99579;-70
2023/04/25 09:33:30;;;;;;;16.67;2.65;;;;;;;16.59;31.84;100454.06;4965844;28;97239;-71
2023/04/25 09:36:03;;;;;;;14.25;2.80;;;;;;;16.63;31.99;100444.06;4965976;28;97258;-71
2023/04/25 09:38:31;;;;;;;12.60;2.75;;;;;;;15.86;31.50;100455.19;4963269;28;98071;-71
2023/04/25 09:41:00;;;;;;;12.05;2.88;;;;;;;15.39;31.68;100460.69;4966921;28;99236;-70
2023/04/25 09:43:27;;;;;;;9.35;2.70;;;;;;;15.63;30.77;100464.56;4965692;28;96893;-70
2023/04/25 09:45:57;;;;;;;5.93;2.20;;;;;;;15.72;30.86;100465.84;4968663;28;97029;-71
2023/04/25 09:48:25;;;;;;;11.05;2.70;;;;;;;15.93;30.65;100465.38;4963595;28;98982;-72
2023/04/25 09:51:09;;;;;;;10.98;1.95;;;;;;;16.44;30.10;100454.19;4958124;28;101894;-71
2023/04/25 09:53:37;;;;;;;14.45;2.60;;;;;;;16.83;29.23;100462.28;4964787;28;96873;-70
2023/04/25 09:56:06;;;;;;;9.40;2.10;;;;;;;16.19;29.78;100470.88;4963835;28;96970;-70
2023/04/25 09:58:33;;;;;;;12.13;2.38;;;;;;;15.47;31.03;100466.44;4959525;28;99191;-71
2023/04/25 10:01:01;;;;;;;12.52;2.53;;;;;;;16.30;30.14;100477.25;4961429;28;98908;-69
2023/04/25 10:03:30;;;;;;;14.55;2.22;;;;;;;16.59;29.41;100474.53;4963213;28;96810;-70
2023/04/25 10:05:59;;;;;;;11.27;2.33;;;;;;;16.97;28.78;100472.91;4973553;28;97344;-70
2023/04/25 10:08:31;;;;;;;11.35;2.80;;;;;;;16.90;28.96;100471.59;4962938;28;98888;-70
2023/04/25 10:11:00;;;;;;;16.27;3.17;;;;;;;16.57;29.22;100465.78;4966504;28;99140;-70
2023/04/25 10:13:28;;;;;;;12.52;2.10;;;;;;;16.39;29.59;100470.47;4966366;28;97082;-70
2023/04/25 10:15:55;;;;;;;13.57;2.53;;;;;;;16.24;29.51;100466.97;4965646;28;97223;-71
2023/04/25 10:18:22;;;;;;;15.43;2.30;;;;;;;16.46;29.56;100474.47;4964513;28;98915;-70
2023/04/25 10:20:48;;;;;;;12.23;2.13;;;;;;;16.52;28.90;100470.56;4965198;28;99364;-70
2023/04/25 10:23:16;;;;;;;12.52;2.83;;;;;;;15.86;29.86;100476.50;4961520;28;97515;-71
2023/04/25 10:25:44;;;;;;;8.38;2.03;;;;;;;16.33;29.64;100477.06;4966447;28;97964;-71
2023/04/25 10:28:11;;;;;;;13.60;2.42;;;;;;;15.63;30.86;100477.88;4964188;28;99108;-70
2023/04/25 10:30:37;;;;;;;11.73;2.40;;;;;;;15.92;30.69;100484.97;4962315;28;98865;-70
2023/04/25 10:33:17;;;;;;;9.90;2.20;;;;;;;16.45;29.63;100478.09;4965077;28;96776;-71
2023/04/25 10:35:45;;;;;;;13.45;2.58;;;;;;;16.83;29.01;100483.63;4965376;28;97485;-71
2023/04/25 10:38:15;;;;;;;15.77;2.50;;;;;;;17.26;28.46;100492.34;4962804;28;99086;-71
2023/04/25 10:40:41;;;;;;;13.50;2.60;;;;;;;16.91;28.46;100494.69;4967223;28;101370;-70
2023/04/25 10:43:41;;;;;;;12.77;2.15;;;;;;;17.00;28.22;100494.06;4965083;28;96719;-71
2023/04/25 10:46:22;;;;;;;13.32;2.42;;;;;;;16.72;28.98;100496.84;4965475;28;97451;-72
2023/04/25 10:48:50;;;;;;;16.50;2.40;;;;;;;16.31;29.46;100499.44;4965286;28;99058;-70
2023/04/25 10:51:19;;;;;;;14.38;2.75;;;;;;;16.67;28.98;100489.09;4972360;28;102452;-69
2023/04/25 10:53:58;;;;;;;12.80;2.15;;;;;;;16.58;28.96;100500.34;4966955;28;97112;-71
2023/04/25 10:56:27;;;;;;;19.50;2.40;;;;;;;16.80;28.68;100496.34;4966366;28;97665;-70
2023/04/25 10:59:04;;;;;;;9.95;1.92;;;;;;;17.26;28.14;100496.84;4965555;28;99530;-71
2023/04/25 11:01:38;;;;;;;12.23;2.28;;;;;;;17.23;28.02;100507.69;4966887;28;101516;-72
2023/04/25 11:04:04;;;;;;;8.57;2.53;;;;;;;16.86;28.40;100504.81;4960936;28;97355;-71
2023/04/25 11:06:43;;;;;;;12.45;2.28;;;;;;;16.77;28.13;100496.53;4970351;28;97031;-71
2023/04/25 11:09:13;;;;;;;7.82;1.65;;;;;;;16.92;28.19;100508.88;4964760;28;99443;-70
2023/04/25 11:11:39;;;;;;;13.13;2.30;;;;;;;17.09;28.01;100517.47;4966117;28;101798;-69
2023/04/25 11:14:07;;;;;;;12.38;1.83;;;;;;;16.55;28.40;100527.22;4968593;28;96840;-71
2023/04/25 11:16:33;;;;;;;12.60;2.33;;;;;;;16.06;29.64;100534.78;4962667;28;96877;-70
2023/04/25 11:19:00;;;;;;;14.05;2.50;;;;;;;16.04;30.07;100539.31;4966871;28;98225;-70
2023/04/25 11:21:27;;;;;;;11.15;1.65;;;;;;;16.00;30.00;100545.81;4970218;28;98909;-70
2023/04/25 11:23:54;;;;;;;12.80;2.40;;;;;;;15.93;30.02;100537.31;4971584;28;96824;-70